sensor_id;sensor_type;location;lat;lon;timestamp;P1;durP1;ratioP1;P2;durP2;ratioP2
54897;SDS011;40800;52.704;6.398;2023-02-28T00:00:32;9.65;;;8.48;;
54897;SDS011;40800;52.704;6.398;2023-02-28T00:02:59;11.32;;;8.40;;
54897;SDS011;40800;52.704;6.398;2023-02-28T00:05:25;10.70;;;8.73;;
54897;SDS011;40800;52.704;6.398;2023-02-28T00:10:19;14.25;;;9.52;;
54897;SDS011;40800;52.704;6.398;2023-02-28T00:12:56;15.45;;;10.00;;
54897;SDS011;40800;52.704;6.398;2023-02-28T00:15:26;17.10;;;9.73;;
54897;SDS011;40800;52.704;6.398;2023-02-28T00:17:52;13.18;;;9.43;;
54897;SDS011;40800;52.704;6.398;2023-02-28T00:20:18;16.27;;;9.73;;
54897;SDS011;40800;52.704;6.398;2023-02-28T00:22:45;10.98;;;9.88;;
54897;SDS011;40800;52.704;6.398;2023-02-28T00:25:13;11.00;;;9.98;;
54897;SDS011;40800;52.704;6.398;2023-02-28T00:27:41;13.90;;;10.32;;
54897;SDS011;40800;52.704;6.398;2023-02-28T00:30:07;22.88;;;10.65;;
54897;SDS011;40800;52.704;6.398;2023-02-28T00:32:35;13.10;;;10.35;;
54897;SDS011;40800;52.704;6.398;2023-02-28T00:35:02;16.15;;;10.30;;
54897;SDS011;40800;52.704;6.398;2023-02-28T00:39:54;15.70;;;11.18;;
54897;SDS011;40800;52.704;6.398;2023-02-28T00:42:19;13.95;;;10.55;;
54897;SDS011;40800;52.704;6.398;2023-02-28T00:44:45;12.32;;;11.00;;
54897;SDS011;40800;52.704;6.398;2023-02-28T00:47:10;12.00;;;10.75;;
54897;SDS011;40800;52.704;6.398;2023-02-28T00:49:36;12.13;;;10.93;;
54897;SDS011;40800;52.704;6.398;2023-02-28T00:52:02;14.43;;;11.02;;
54897;SDS011;40800;52.704;6.398;2023-02-28T00:54:28;15.77;;;10.70;;
54897;SDS011;40800;52.704;6.398;2023-02-28T00:56:53;12.82;;;10.32;;
54897;SDS011;40800;52.704;6.398;2023-02-28T00:59:19;13.10;;;11.38;;
54897;SDS011;40800;52.704;6.398;2023-02-28T01:01:45;12.55;;;11.25;;
54897;SDS011;40800;52.704;6.398;2023-02-28T01:04:11;12.17;;;10.97;;
54897;SDS011;40800;52.704;6.398;2023-02-28T01:06:38;12.57;;;11.30;;
54897;SDS011;40800;52.704;6.398;2023-02-28T01:09:04;12.80;;;11.47;;
54897;SDS011;40800;52.704;6.398;2023-02-28T01:13:57;12.35;;;11.32;;
54897;SDS011;40800;52.704;6.398;2023-02-28T01:16:23;12.45;;;11.32;;
54897;SDS011;40800;52.704;6.398;2023-02-28T01:18:49;12.38;;;11.30;;
54897;SDS011;40800;52.704;6.398;2023-02-28T01:21:15;12.25;;;11.20;;
54897;SDS011;40800;52.704;6.398;2023-02-28T01:23:43;12.73;;;11.50;;
54897;SDS011;40800;52.704;6.398;2023-02-28T01:26:10;12.25;;;11.15;;
54897;SDS011;40800;52.704;6.398;2023-02-28T01:28:38;13.65;;;12.13;;
54897;SDS011;40800;52.704;6.398;2023-02-28T01:31:03;12.80;;;11.52;;
54897;SDS011;40800;52.704;6.398;2023-02-28T01:33:30;11.95;;;10.75;;
54897;SDS011;40800;52.704;6.398;2023-02-28T01:36:00;12.50;;;11.40;;
54897;SDS011;40800;52.704;6.398;2023-02-28T01:38:30;13.00;;;11.65;;
54897;SDS011;40800;52.704;6.398;2023-02-28T01:40:56;13.30;;;11.83;;
54897;SDS011;40800;52.704;6.398;2023-02-28T01:43:29;12.52;;;11.43;;
54897;SDS011;40800;52.704;6.398;2023-02-28T01:45:56;12.45;;;11.25;;
54897;SDS011;40800;52.704;6.398;2023-02-28T01:51:01;13.23;;;11.93;;
54897;SDS011;40800;52.704;6.398;2023-02-28T01:53:41;12.75;;;11.57;;
54897;SDS011;40800;52.704;6.398;2023-02-28T01:56:21;12.77;;;11.75;;
54897;SDS011;40800;52.704;6.398;2023-02-28T01:58:50;13.48;;;12.30;;
54897;SDS011;40800;52.704;6.398;2023-02-28T02:03:56;13.30;;;12.10;;
54897;SDS011;40800;52.704;6.398;2023-02-28T02:06:24;14.05;;;12.82;;
54897;SDS011;40800;52.704;6.398;2023-02-28T02:08:54;14.15;;;12.80;;
54897;SDS011;40800;52.704;6.398;2023-02-28T02:11:20;13.70;;;12.40;;
54897;SDS011;40800;52.704;6.398;2023-02-28T02:13:56;13.32;;;12.23;;
54897;SDS011;40800;52.704;6.398;2023-02-28T02:16:51;14.05;;;12.68;;
54897;SDS011;40800;52.704;6.398;2023-02-28T02:25:25;14.65;;;13.35;;
54897;SDS011;40800;52.704;6.398;2023-02-28T02:28:11;14.57;;;13.13;;
54897;SDS011;40800;52.704;6.398;2023-02-28T02:30:51;14.00;;;12.80;;
54897;SDS011;40800;52.704;6.398;2023-02-28T02:35:59;14.90;;;13.50;;
54897;SDS011;40800;52.704;6.398;2023-02-28T02:43:44;14.77;;;13.63;;
54897;SDS011;40800;52.704;6.398;2023-02-28T02:46:35;16.15;;;14.80;;
54897;SDS011;40800;52.704;6.398;2023-02-28T02:49:07;16.00;;;14.55;;
54897;SDS011;40800;52.704;6.398;2023-02-28T02:51:35;17.23;;;15.40;;
54897;SDS011;40800;52.704;6.398;2023-02-28T02:54:11;18.45;;;16.80;;
54897;SDS011;40800;52.704;6.398;2023-02-28T02:56:41;18.75;;;17.13;;
54897;SDS011;40800;52.704;6.398;2023-02-28T02:59:11;20.38;;;18.38;;
54897;SDS011;40800;52.704;6.398;2023-02-28T03:01:46;20.67;;;18.92;;
54897;SDS011;40800;52.704;6.398;2023-02-28T03:04:18;20.63;;;18.83;;
54897;SDS011;40800;52.704;6.398;2023-02-28T03:06:46;21.35;;;19.33;;
54897;SDS011;40800;52.704;6.398;2023-02-28T03:09:12;21.65;;;19.95;;
54897;SDS011;40800;52.704;6.398;2023-02-28T03:11:38;21.70;;;20.00;;
54897;SDS011;40800;52.704;6.398;2023-02-28T03:19:45;21.95;;;20.17;;
54897;SDS011;40800;52.704;6.398;2023-02-28T03:25:43;23.05;;;21.25;;
54897;SDS011;40800;52.704;6.398;2023-02-28T03:28:21;22.50;;;20.50;;
54897;SDS011;40800;52.704;6.398;2023-02-28T03:33:50;22.98;;;20.98;;
54897;SDS011;40800;52.704;6.398;2023-02-28T03:36:22;24.02;;;21.95;;
54897;SDS011;40800;52.704;6.398;2023-02-28T03:38:57;24.33;;;22.23;;
54897;SDS011;40800;52.704;6.398;2023-02-28T03:41:44;23.20;;;21.20;;
54897;SDS011;40800;52.704;6.398;2023-02-28T03:44:24;24.52;;;22.40;;
54897;SDS011;40800;52.704;6.398;2023-02-28T03:47:03;24.13;;;21.88;;
54897;SDS011;40800;52.704;6.398;2023-02-28T03:49:34;25.45;;;23.13;;
54897;SDS011;40800;52.704;6.398;2023-02-28T03:52:08;25.73;;;23.42;;
54897;SDS011;40800;52.704;6.398;2023-02-28T03:54:35;25.25;;;23.25;;
54897;SDS011;40800;52.704;6.398;2023-02-28T03:57:23;26.00;;;23.60;;
54897;SDS011;40800;52.704;6.398;2023-02-28T03:59:59;24.13;;;22.23;;
54897;SDS011;40800;52.704;6.398;2023-02-28T04:02:44;25.75;;;23.42;;
54897;SDS011;40800;52.704;6.398;2023-02-28T04:05:10;25.55;;;23.05;;
54897;SDS011;40800;52.704;6.398;2023-02-28T04:07:35;26.42;;;24.15;;
54897;SDS011;40800;52.704;6.398;2023-02-28T04:10:02;26.23;;;23.83;;
54897;SDS011;40800;52.704;6.398;2023-02-28T04:12:28;25.35;;;22.98;;
54897;SDS011;40800;52.704;6.398;2023-02-28T04:14:54;27.30;;;24.88;;
54897;SDS011;40800;52.704;6.398;2023-02-28T04:17:20;27.02;;;24.50;;
54897;SDS011;40800;52.704;6.398;2023-02-28T04:19:46;27.05;;;24.70;;
54897;SDS011;40800;52.704;6.398;2023-02-28T04:22:11;26.95;;;24.58;;
54897;SDS011;40800;52.704;6.398;2023-02-28T04:24:37;27.10;;;24.63;;
54897;SDS011;40800;52.704;6.398;2023-02-28T04:27:06;27.98;;;25.52;;
54897;SDS011;40800;52.704;6.398;2023-02-28T04:29:33;25.23;;;23.27;;
54897;SDS011;40800;52.704;6.398;2023-02-28T04:32:00;26.70;;;24.60;;
54897;SDS011;40800;52.704;6.398;2023-02-28T04:34:26;27.70;;;25.30;;
54897;SDS011;40800;52.704;6.398;2023-02-28T04:36:54;26.90;;;24.60;;
54897;SDS011;40800;52.704;6.398;2023-02-28T04:39:20;27.73;;;25.33;;
54897;SDS011;40800;52.704;6.398;2023-02-28T04:41:47;27.10;;;24.77;;
54897;SDS011;40800;52.704;6.398;2023-02-28T04:44:13;28.33;;;25.83;;
54897;SDS011;40800;52.704;6.398;2023-02-28T04:46:40;29.60;;;26.88;;
54897;SDS011;40800;52.704;6.398;2023-02-28T04:49:06;30.33;;;27.65;;
54897;SDS011;40800;52.704;6.398;2023-02-28T04:51:31;32.00;;;28.88;;
54897;SDS011;40800;52.704;6.398;2023-02-28T04:53:57;28.80;;;26.50;;
54897;SDS011;40800;52.704;6.398;2023-02-28T04:56:23;29.42;;;26.98;;
54897;SDS011;40800;52.704;6.398;2023-02-28T04:58:49;29.70;;;27.30;;
54897;SDS011;40800;52.704;6.398;2023-02-28T05:03:47;31.63;;;28.92;;
54897;SDS011;40800;52.704;6.398;2023-02-28T05:06:13;31.88;;;29.27;;
54897;SDS011;40800;52.704;6.398;2023-02-28T05:08:39;31.77;;;29.17;;
54897;SDS011;40800;52.704;6.398;2023-02-28T05:11:19;30.95;;;28.45;;
54897;SDS011;40800;52.704;6.398;2023-02-28T05:13:44;32.50;;;29.70;;
54897;SDS011;40800;52.704;6.398;2023-02-28T05:16:10;30.92;;;28.23;;
54897;SDS011;40800;52.704;6.398;2023-02-28T05:18:36;31.65;;;28.80;;
54897;SDS011;40800;52.704;6.398;2023-02-28T05:21:02;31.00;;;28.42;;
54897;SDS011;40800;52.704;6.398;2023-02-28T05:23:28;32.38;;;29.17;;
54897;SDS011;40800;52.704;6.398;2023-02-28T05:25:54;30.67;;;28.17;;
54897;SDS011;40800;52.704;6.398;2023-02-28T05:28:20;31.20;;;28.65;;
54897;SDS011;40800;52.704;6.398;2023-02-28T05:30:46;30.48;;;27.90;;
54897;SDS011;40800;52.704;6.398;2023-02-28T05:33:12;30.90;;;28.27;;
54897;SDS011;40800;52.704;6.398;2023-02-28T05:35:38;33.83;;;30.90;;
54897;SDS011;40800;52.704;6.398;2023-02-28T05:38:05;31.75;;;29.05;;
54897;SDS011;40800;52.704;6.398;2023-02-28T05:40:30;33.30;;;30.30;;
54897;SDS011;40800;52.704;6.398;2023-02-28T05:42:56;31.23;;;28.65;;
54897;SDS011;40800;52.704;6.398;2023-02-28T05:45:21;32.05;;;29.38;;
54897;SDS011;40800;52.704;6.398;2023-02-28T05:47:47;33.55;;;30.65;;
54897;SDS011;40800;52.704;6.398;2023-02-28T05:50:12;34.42;;;31.63;;
54897;SDS011;40800;52.704;6.398;2023-02-28T05:52:38;33.92;;;31.00;;
54897;SDS011;40800;52.704;6.398;2023-02-28T05:55:04;33.22;;;30.52;;
54897;SDS011;40800;52.704;6.398;2023-02-28T05:57:30;34.78;;;31.95;;
54897;SDS011;40800;52.704;6.398;2023-02-28T05:59:55;35.38;;;32.17;;
54897;SDS011;40800;52.704;6.398;2023-02-28T06:02:21;36.10;;;32.88;;
54897;SDS011;40800;52.704;6.398;2023-02-28T06:04:46;35.63;;;32.60;;
54897;SDS011;40800;52.704;6.398;2023-02-28T06:07:12;36.70;;;33.60;;
54897;SDS011;40800;52.704;6.398;2023-02-28T06:09:38;37.17;;;33.95;;
54897;SDS011;40800;52.704;6.398;2023-02-28T06:12:04;37.72;;;33.97;;
54897;SDS011;40800;52.704;6.398;2023-02-28T06:14:32;37.92;;;34.45;;
54897;SDS011;40800;52.704;6.398;2023-02-28T06:16:59;37.33;;;34.08;;
54897;SDS011;40800;52.704;6.398;2023-02-28T06:19:25;37.05;;;33.70;;
54897;SDS011;40800;52.704;6.398;2023-02-28T06:21:52;39.40;;;35.97;;
54897;SDS011;40800;52.704;6.398;2023-02-28T06:26:44;39.75;;;36.20;;
54897;SDS011;40800;52.704;6.398;2023-02-28T06:29:10;39.53;;;36.05;;
54897;SDS011;40800;52.704;6.398;2023-02-28T06:31:36;39.80;;;36.35;;
54897;SDS011;40800;52.704;6.398;2023-02-28T06:34:03;37.85;;;34.65;;
54897;SDS011;40800;52.704;6.398;2023-02-28T06:36:29;38.38;;;34.95;;
54897;SDS011;40800;52.704;6.398;2023-02-28T06:38:55;41.75;;;37.90;;
54897;SDS011;40800;52.704;6.398;2023-02-28T06:41:24;43.03;;;39.47;;
54897;SDS011;40800;52.704;6.398;2023-02-28T06:43:51;37.70;;;34.63;;
54897;SDS011;40800;52.704;6.398;2023-02-28T06:46:17;38.38;;;35.28;;
54897;SDS011;40800;52.704;6.398;2023-02-28T06:48:44;37.55;;;34.38;;
54897;SDS011;40800;52.704;6.398;2023-02-28T06:51:17;36.90;;;34.00;;
54897;SDS011;40800;52.704;6.398;2023-02-28T06:53:49;36.83;;;34.03;;
54897;SDS011;40800;52.704;6.398;2023-02-28T06:56:15;38.35;;;35.00;;
54897;SDS011;40800;52.704;6.398;2023-02-28T06:58:42;37.85;;;34.80;;
54897;SDS011;40800;52.704;6.398;2023-02-28T07:01:15;37.88;;;34.60;;
54897;SDS011;40800;52.704;6.398;2023-02-28T07:03:41;37.13;;;33.95;;
54897;SDS011;40800;52.704;6.398;2023-02-28T07:06:07;36.95;;;34.08;;
54897;SDS011;40800;52.704;6.398;2023-02-28T07:08:33;35.47;;;32.58;;
54897;SDS011;40800;52.704;6.398;2023-02-28T07:11:00;37.50;;;34.55;;
54897;SDS011;40800;52.704;6.398;2023-02-28T07:13:26;36.38;;;33.45;;
54897;SDS011;40800;52.704;6.398;2023-02-28T07:16:02;56.70;;;53.00;;
54897;SDS011;40800;52.704;6.398;2023-02-28T07:18:30;36.22;;;33.45;;
54897;SDS011;40800;52.704;6.398;2023-02-28T07:20:56;38.65;;;35.60;;
54897;SDS011;40800;52.704;6.398;2023-02-28T07:23:21;37.33;;;34.33;;
54897;SDS011;40800;52.704;6.398;2023-02-28T07:25:47;37.65;;;34.53;;
54897;SDS011;40800;52.704;6.398;2023-02-28T07:28:15;36.28;;;33.45;;
54897;SDS011;40800;52.704;6.398;2023-02-28T07:30:40;36.58;;;33.88;;
54897;SDS011;40800;52.704;6.398;2023-02-28T07:33:06;34.38;;;32.00;;
54897;SDS011;40800;52.704;6.398;2023-02-28T07:35:32;37.35;;;34.50;;
54897;SDS011;40800;52.704;6.398;2023-02-28T07:37:58;37.55;;;34.65;;
54897;SDS011;40800;52.704;6.398;2023-02-28T07:40:24;38.22;;;35.13;;
54897;SDS011;40800;52.704;6.398;2023-02-28T07:42:50;36.35;;;33.83;;
54897;SDS011;40800;52.704;6.398;2023-02-28T07:45:15;35.83;;;33.28;;
54897;SDS011;40800;52.704;6.398;2023-02-28T07:47:42;36.33;;;33.58;;
54897;SDS011;40800;52.704;6.398;2023-02-28T07:50:09;35.63;;;33.08;;
54897;SDS011;40800;52.704;6.398;2023-02-28T07:52:37;35.45;;;32.95;;
54897;SDS011;40800;52.704;6.398;2023-02-28T07:55:04;36.20;;;33.47;;
54897;SDS011;40800;52.704;6.398;2023-02-28T07:57:31;35.00;;;32.30;;
54897;SDS011;40800;52.704;6.398;2023-02-28T07:59:57;36.17;;;33.45;;
54897;SDS011;40800;52.704;6.398;2023-02-28T08:02:22;33.83;;;31.33;;
54897;SDS011;40800;52.704;6.398;2023-02-28T08:04:48;35.63;;;33.03;;
54897;SDS011;40800;52.704;6.398;2023-02-28T08:07:14;35.47;;;32.83;;
54897;SDS011;40800;52.704;6.398;2023-02-28T08:09:41;34.67;;;32.17;;
54897;SDS011;40800;52.704;6.398;2023-02-28T08:12:07;36.20;;;33.60;;
54897;SDS011;40800;52.704;6.398;2023-02-28T08:14:33;34.72;;;32.35;;
54897;SDS011;40800;52.704;6.398;2023-02-28T08:16:59;34.80;;;32.50;;
54897;SDS011;40800;52.704;6.398;2023-02-28T08:19:25;34.70;;;32.20;;
54897;SDS011;40800;52.704;6.398;2023-02-28T08:21:51;32.85;;;30.55;;
54897;SDS011;40800;52.704;6.398;2023-02-28T08:24:16;32.78;;;30.48;;
54897;SDS011;40800;52.704;6.398;2023-02-28T08:26:43;34.78;;;32.22;;
54897;SDS011;40800;52.704;6.398;2023-02-28T08:29:09;34.45;;;32.05;;
54897;SDS011;40800;52.704;6.398;2023-02-28T08:31:34;33.50;;;31.35;;
54897;SDS011;40800;52.704;6.398;2023-02-28T08:34:04;32.08;;;29.98;;
54897;SDS011;40800;52.704;6.398;2023-02-28T08:36:30;33.08;;;30.88;;
54897;SDS011;40800;52.704;6.398;2023-02-28T08:38:56;31.77;;;29.55;;
54897;SDS011;40800;52.704;6.398;2023-02-28T08:41:22;31.05;;;29.05;;
54897;SDS011;40800;52.704;6.398;2023-02-28T08:43:48;29.38;;;27.48;;
54897;SDS011;40800;52.704;6.398;2023-02-28T08:46:15;29.02;;;27.05;;
54897;SDS011;40800;52.704;6.398;2023-02-28T08:48:40;28.35;;;26.30;;
54897;SDS011;40800;52.704;6.398;2023-02-28T08:51:08;28.27;;;26.20;;
54897;SDS011;40800;52.704;6.398;2023-02-28T08:53:36;26.77;;;24.98;;
54897;SDS011;40800;52.704;6.398;2023-02-28T08:56:04;26.08;;;24.10;;
54897;SDS011;40800;52.704;6.398;2023-02-28T08:58:31;24.85;;;23.15;;
54897;SDS011;40800;52.704;6.398;2023-02-28T09:00:57;23.60;;;21.60;;
54897;SDS011;40800;52.704;6.398;2023-02-28T09:03:23;21.98;;;20.35;;
54897;SDS011;40800;52.704;6.398;2023-02-28T09:05:53;22.00;;;20.40;;
54897;SDS011;40800;52.704;6.398;2023-02-28T09:08:24;22.23;;;20.55;;
54897;SDS011;40800;52.704;6.398;2023-02-28T09:10:51;22.05;;;20.10;;
54897;SDS011;40800;52.704;6.398;2023-02-28T09:13:17;20.70;;;19.27;;
54897;SDS011;40800;52.704;6.398;2023-02-28T09:15:43;19.05;;;17.65;;
54897;SDS011;40800;52.704;6.398;2023-02-28T09:18:09;17.65;;;16.30;;
54897;SDS011;40800;52.704;6.398;2023-02-28T09:20:39;15.63;;;14.52;;
54897;SDS011;40800;52.704;6.398;2023-02-28T09:23:06;13.52;;;12.52;;
54897;SDS011;40800;52.704;6.398;2023-02-28T09:25:33;12.68;;;11.77;;
54897;SDS011;40800;52.704;6.398;2023-02-28T09:27:59;13.00;;;11.95;;
54897;SDS011;40800;52.704;6.398;2023-02-28T09:30:25;12.45;;;11.32;;
54897;SDS011;40800;52.704;6.398;2023-02-28T09:32:51;12.40;;;11.40;;
54897;SDS011;40800;52.704;6.398;2023-02-28T09:37:48;12.18;;;11.18;;
54897;SDS011;40800;52.704;6.398;2023-02-28T09:40:16;12.13;;;11.02;;
54897;SDS011;40800;52.704;6.398;2023-02-28T09:42:45;11.82;;;10.85;;
54897;SDS011;40800;52.704;6.398;2023-02-28T09:45:19;11.70;;;10.73;;
54897;SDS011;40800;52.704;6.398;2023-02-28T09:47:52;12.05;;;11.00;;
54897;SDS011;40800;52.704;6.398;2023-02-28T09:50:43;11.48;;;10.40;;
54897;SDS011;40800;52.704;6.398;2023-02-28T09:53:13;8.32;;;7.63;;
54897;SDS011;40800;52.704;6.398;2023-02-28T09:55:47;9.45;;;8.60;;
54897;SDS011;40800;52.704;6.398;2023-02-28T09:58:22;7.43;;;6.72;;
54897;SDS011;40800;52.704;6.398;2023-02-28T10:03:57;5.90;;;4.22;;
54897;SDS011;40800;52.704;6.398;2023-02-28T10:06:29;6.32;;;3.80;;
54897;SDS011;40800;52.704;6.398;2023-02-28T10:09:03;5.68;;;3.50;;
54897;SDS011;40800;52.704;6.398;2023-02-28T10:11:34;4.03;;;2.83;;
54897;SDS011;40800;52.704;6.398;2023-02-28T10:14:03;3.53;;;2.83;;
54897;SDS011;40800;52.704;6.398;2023-02-28T10:16:40;6.00;;;2.67;;
54897;SDS011;40800;52.704;6.398;2023-02-28T10:24:51;3.83;;;2.50;;
54897;SDS011;40800;52.704;6.398;2023-02-28T10:27:22;3.88;;;2.42;;
54897;SDS011;40800;52.704;6.398;2023-02-28T10:32:17;4.18;;;2.58;;
54897;SDS011;40800;52.704;6.398;2023-02-28T10:35:30;4.03;;;2.70;;
54897;SDS011;40800;52.704;6.398;2023-02-28T10:37:33;4.18;;;2.50;;
54897;SDS011;40800;52.704;6.398;2023-02-28T10:40:04;3.88;;;2.50;;
54897;SDS011;40800;52.704;6.398;2023-02-28T10:42:31;5.72;;;3.25;;
54897;SDS011;40800;52.704;6.398;2023-02-28T10:45:17;5.03;;;2.85;;
54897;SDS011;40800;52.704;6.398;2023-02-28T10:55:42;4.55;;;2.75;;
54897;SDS011;40800;52.704;6.398;2023-02-28T11:00:59;4.20;;;2.70;;
54897;SDS011;40800;52.704;6.398;2023-02-28T11:03:29;4.97;;;2.92;;
54897;SDS011;40800;52.704;6.398;2023-02-28T11:06:04;6.53;;;3.00;;
54897;SDS011;40800;52.704;6.398;2023-02-28T11:08:32;4.45;;;2.92;;
54897;SDS011;40800;52.704;6.398;2023-02-28T11:11:01;4.93;;;2.90;;
54897;SDS011;40800;52.704;6.398;2023-02-28T11:13:35;4.82;;;3.05;;
54897;SDS011;40800;52.704;6.398;2023-02-28T11:16:06;3.75;;;2.80;;
54897;SDS011;40800;52.704;6.398;2023-02-28T11:21:09;4.05;;;2.72;;
54897;SDS011;40800;52.704;6.398;2023-02-28T11:23:42;5.72;;;2.75;;
54897;SDS011;40800;52.704;6.398;2023-02-28T11:26:08;5.88;;;3.05;;
54897;SDS011;40800;52.704;6.398;2023-02-28T11:28:38;3.75;;;2.60;;
54897;SDS011;40800;52.704;6.398;2023-02-28T11:33:44;5.72;;;2.50;;
54897;SDS011;40800;52.704;6.398;2023-02-28T11:38:40;2.83;;;1.95;;
54897;SDS011;40800;52.704;6.398;2023-02-28T11:52:19;4.53;;;2.05;;
54897;SDS011;40800;52.704;6.398;2023-02-28T12:11:35;3.03;;;2.08;;
54897;SDS011;40800;52.704;6.398;2023-02-28T12:14:25;2.97;;;2.00;;
54897;SDS011;40800;52.704;6.398;2023-02-28T12:27:46;3.35;;;2.38;;
54897;SDS011;40800;52.704;6.398;2023-02-28T12:30:27;4.05;;;2.20;;
54897;SDS011;40800;52.704;6.398;2023-02-28T12:33:17;4.07;;;2.15;;
54897;SDS011;40800;52.704;6.398;2023-02-28T12:35:54;3.72;;;2.38;;
54897;SDS011;40800;52.704;6.398;2023-02-28T12:43:29;4.03;;;2.33;;
54897;SDS011;40800;52.704;6.398;2023-02-28T12:45:59;2.63;;;2.10;;
54897;SDS011;40800;52.704;6.398;2023-02-28T12:48:43;3.17;;;2.20;;
54897;SDS011;40800;52.704;6.398;2023-02-28T12:51:17;4.20;;;2.20;;
54897;SDS011;40800;52.704;6.398;2023-02-28T12:59:03;4.40;;;2.20;;
54897;SDS011;40800;52.704;6.398;2023-02-28T13:01:42;4.10;;;2.38;;
54897;SDS011;40800;52.704;6.398;2023-02-28T13:04:27;4.00;;;2.13;;
54897;SDS011;40800;52.704;6.398;2023-02-28T13:09:59;3.60;;;2.22;;
54897;SDS011;40800;52.704;6.398;2023-02-28T13:12:27;3.88;;;2.25;;
54897;SDS011;40800;52.704;6.398;2023-02-28T13:15:01;3.15;;;2.30;;
54897;SDS011;40800;52.704;6.398;2023-02-28T13:17:48;2.88;;;2.10;;
54897;SDS011;40800;52.704;6.398;2023-02-28T13:20:16;4.15;;;2.50;;
54897;SDS011;40800;52.704;6.398;2023-02-28T13:23:03;3.83;;;2.50;;
54897;SDS011;40800;52.704;6.398;2023-02-28T13:25:50;4.90;;;2.35;;
54897;SDS011;40800;52.704;6.398;2023-02-28T13:28:57;3.80;;;2.40;;
54897;SDS011;40800;52.704;6.398;2023-02-28T13:31:14;4.30;;;2.40;;
54897;SDS011;40800;52.704;6.398;2023-02-28T13:38:43;3.30;;;2.40;;
54897;SDS011;40800;52.704;6.398;2023-02-28T13:44:03;2.70;;;1.90;;
54897;SDS011;40800;52.704;6.398;2023-02-28T13:46:34;3.70;;;2.42;;
54897;SDS011;40800;52.704;6.398;2023-02-28T13:54:58;4.43;;;2.45;;
54897;SDS011;40800;52.704;6.398;2023-02-28T14:08:47;3.03;;;2.20;;
54897;SDS011;40800;52.704;6.398;2023-02-28T14:11:25;3.38;;;2.47;;
54897;SDS011;40800;52.704;6.398;2023-02-28T14:13:53;3.50;;;2.63;;
54897;SDS011;40800;52.704;6.398;2023-02-28T14:16:23;4.20;;;2.53;;
54897;SDS011;40800;52.704;6.398;2023-02-28T14:18:58;4.13;;;2.40;;
54897;SDS011;40800;52.704;6.398;2023-02-28T14:21:30;3.63;;;2.60;;
54897;SDS011;40800;52.704;6.398;2023-02-28T14:38:18;3.42;;;2.40;;
54897;SDS011;40800;52.704;6.398;2023-02-28T14:40:47;4.65;;;2.80;;
54897;SDS011;40800;52.704;6.398;2023-02-28T14:43:25;3.50;;;2.22;;
54897;SDS011;40800;52.704;6.398;2023-02-28T14:45:59;3.78;;;2.53;;
54897;SDS011;40800;52.704;6.398;2023-02-28T14:48:27;4.18;;;2.70;;
54897;SDS011;40800;52.704;6.398;2023-02-28T14:50:57;4.00;;;2.60;;
54897;SDS011;40800;52.704;6.398;2023-02-28T14:53:28;3.63;;;2.80;;
54897;SDS011;40800;52.704;6.398;2023-02-28T14:55:55;4.05;;;2.85;;
54897;SDS011;40800;52.704;6.398;2023-02-28T14:58:22;5.15;;;3.03;;
54897;SDS011;40800;52.704;6.398;2023-02-28T15:00:57;4.18;;;3.00;;
54897;SDS011;40800;52.704;6.398;2023-02-28T15:03:27;4.50;;;2.80;;
54897;SDS011;40800;52.704;6.398;2023-02-28T15:05:59;4.63;;;2.83;;
54897;SDS011;40800;52.704;6.398;2023-02-28T15:08:38;4.15;;;2.63;;
54897;SDS011;40800;52.704;6.398;2023-02-28T15:16:06;5.18;;;2.85;;
54897;SDS011;40800;52.704;6.398;2023-02-28T15:21:44;4.18;;;2.78;;
54897;SDS011;40800;52.704;6.398;2023-02-28T15:24:18;6.00;;;2.90;;
54897;SDS011;40800;52.704;6.398;2023-02-28T15:26:56;4.35;;;2.83;;
54897;SDS011;40800;52.704;6.398;2023-02-28T15:29:25;4.40;;;3.00;;
54897;SDS011;40800;52.704;6.398;2023-02-28T15:31:56;4.68;;;2.60;;
54897;SDS011;40800;52.704;6.398;2023-02-28T15:34:36;4.13;;;2.53;;
54897;SDS011;40800;52.704;6.398;2023-02-28T15:39:55;3.92;;;2.55;;
54897;SDS011;40800;52.704;6.398;2023-02-28T15:42:23;4.60;;;2.70;;
54897;SDS011;40800;52.704;6.398;2023-02-28T15:44:53;4.18;;;2.70;;
54897;SDS011;40800;52.704;6.398;2023-02-28T15:47:20;4.57;;;2.80;;
54897;SDS011;40800;52.704;6.398;2023-02-28T15:49:49;5.85;;;2.88;;
54897;SDS011;40800;52.704;6.398;2023-02-28T15:52:19;5.57;;;2.60;;
54897;SDS011;40800;52.704;6.398;2023-02-28T15:55:09;5.05;;;2.55;;
54897;SDS011;40800;52.704;6.398;2023-02-28T15:57:40;4.78;;;2.63;;
54897;SDS011;40800;52.704;6.398;2023-02-28T16:00:08;6.47;;;2.50;;
54897;SDS011;40800;52.704;6.398;2023-02-28T16:02:37;5.78;;;2.50;;
54897;SDS011;40800;52.704;6.398;2023-02-28T16:07:35;5.53;;;2.33;;
54897;SDS011;40800;52.704;6.398;2023-02-28T16:10:06;6.07;;;2.90;;
54897;SDS011;40800;52.704;6.398;2023-02-28T16:12:35;4.53;;;2.72;;
54897;SDS011;40800;52.704;6.398;2023-02-28T16:15:06;4.70;;;2.83;;
54897;SDS011;40800;52.704;6.398;2023-02-28T16:17:35;3.47;;;2.65;;
54897;SDS011;40800;52.704;6.398;2023-02-28T16:20:17;3.95;;;2.88;;
54897;SDS011;40800;52.704;6.398;2023-02-28T16:22:46;6.88;;;3.15;;
54897;SDS011;40800;52.704;6.398;2023-02-28T16:25:16;7.45;;;3.10;;
54897;SDS011;40800;52.704;6.398;2023-02-28T16:27:43;4.72;;;3.20;;
54897;SDS011;40800;52.704;6.398;2023-02-28T16:30:18;5.97;;;2.90;;
54897;SDS011;40800;52.704;6.398;2023-02-28T16:32:46;4.70;;;2.88;;
54897;SDS011;40800;52.704;6.398;2023-02-28T16:35:12;5.55;;;3.10;;
54897;SDS011;40800;52.704;6.398;2023-02-28T16:37:39;5.22;;;3.10;;
54897;SDS011;40800;52.704;6.398;2023-02-28T16:40:05;6.57;;;3.40;;
54897;SDS011;40800;52.704;6.398;2023-02-28T16:42:33;5.35;;;3.50;;
54897;SDS011;40800;52.704;6.398;2023-02-28T16:44:59;4.43;;;3.28;;
54897;SDS011;40800;52.704;6.398;2023-02-28T16:47:24;4.93;;;3.13;;
54897;SDS011;40800;52.704;6.398;2023-02-28T16:49:51;3.90;;;3.00;;
54897;SDS011;40800;52.704;6.398;2023-02-28T16:52:17;4.32;;;3.40;;
54897;SDS011;40800;52.704;6.398;2023-02-28T16:54:43;5.40;;;3.40;;
54897;SDS011;40800;52.704;6.398;2023-02-28T16:57:27;5.18;;;3.22;;
54897;SDS011;40800;52.704;6.398;2023-02-28T16:59:52;4.82;;;3.50;;
54897;SDS011;40800;52.704;6.398;2023-02-28T17:02:18;6.47;;;3.45;;
54897;SDS011;40800;52.704;6.398;2023-02-28T17:04:44;6.85;;;3.65;;
54897;SDS011;40800;52.704;6.398;2023-02-28T17:07:11;7.10;;;3.40;;
54897;SDS011;40800;52.704;6.398;2023-02-28T17:09:38;8.57;;;3.42;;
54897;SDS011;40800;52.704;6.398;2023-02-28T17:12:04;5.72;;;3.33;;
54897;SDS011;40800;52.704;6.398;2023-02-28T17:14:30;6.00;;;3.60;;
54897;SDS011;40800;52.704;6.398;2023-02-28T17:16:56;6.22;;;3.60;;
54897;SDS011;40800;52.704;6.398;2023-02-28T17:19:21;4.80;;;3.45;;
54897;SDS011;40800;52.704;6.398;2023-02-28T17:21:47;6.15;;;3.80;;
54897;SDS011;40800;52.704;6.398;2023-02-28T17:24:12;5.80;;;3.80;;
54897;SDS011;40800;52.704;6.398;2023-02-28T17:26:39;5.20;;;4.05;;
54897;SDS011;40800;52.704;6.398;2023-02-28T17:29:09;5.35;;;3.83;;
54897;SDS011;40800;52.704;6.398;2023-02-28T17:31:41;5.90;;;3.50;;
54897;SDS011;40800;52.704;6.398;2023-02-28T17:34:06;5.22;;;3.60;;
54897;SDS011;40800;52.704;6.398;2023-02-28T17:36:32;5.18;;;3.78;;
54897;SDS011;40800;52.704;6.398;2023-02-28T17:41:26;5.95;;;3.30;;
54897;SDS011;40800;52.704;6.398;2023-02-28T17:43:51;5.85;;;4.03;;
54897;SDS011;40800;52.704;6.398;2023-02-28T17:46:21;6.35;;;3.75;;